Time;durP1;ratioP1;P1;durP2;ratioP2;P2;SDS_P1;SDS_P2;PMS_P1;PMS_P2;Temp;Humidity;BMP_temperature;BMP_pressure;BME280_temperature;BME280_humidity;BME280_pressure;Samples;Min_cycle;Max_cycle;Signal;HPM_P1;HPM_P2
2023/12/30 00:01:45;;;;;;;4.82;1.42;;;7.30;94.50;;;;;;5052100;28;20112;-42
2023/12/30 00:04:11;;;;;;;6.13;1.05;;;7.20;94.20;;;;;;5050974;28;20477;-42
2023/12/30 00:06:37;;;;;;;5.70;1.20;;;7.20;94.30;;;;;;5052467;28;20024;-40
2023/12/30 00:09:02;;;;;;;4.05;1.38;;;7.10;94.30;;;;;;5052463;28;20021;-40
2023/12/30 00:11:28;;;;;;;4.65;1.30;;;7.10;94.30;;;;;;5052493;28;20025;-39
2023/12/30 00:13:54;;;;;;;4.28;1.20;;;7.10;94.30;;;;;;5052439;28;20087;-38
2023/12/30 00:16:19;;;;;;;5.05;1.27;;;7.00;94.30;;;;;;5052115;28;20035;-43
2023/12/30 00:18:45;;;;;;;3.92;1.05;;;7.00;94.30;;;;;;5052040;28;20025;-41
2023/12/30 00:21:10;;;;;;;5.78;1.00;;;7.00;94.30;;;;;;5051820;28;20025;-37
2023/12/30 00:23:37;;;;;;;4.93;1.08;;;7.00;94.30;;;;;;5051870;28;20052;-39
2023/12/30 00:26:03;;;;;;;6.60;1.40;;;6.90;94.30;;;;;;5051872;28;20056;-39
2023/12/30 00:28:28;;;;;;;4.38;1.10;;;6.90;94.40;;;;;;5051928;28;20040;-36
2023/12/30 00:30:54;;;;;;;3.00;1.25;;;6.90;94.40;;;;;;5051923;28;20478;-37
2023/12/30 00:33:20;;;;;;;4.47;1.23;;;6.90;94.40;;;;;;5051650;28;20040;-36
2023/12/30 00:35:45;;;;;;;4.50;1.08;;;6.90;94.40;;;;;;5051853;28;20025;-43
2023/12/30 00:38:11;;;;;;;3.58;1.48;;;6.90;94.40;;;;;;5052093;28;20025;-44
2023/12/30 00:40:37;;;;;;;6.70;1.15;;;6.90;94.40;;;;;;5051845;28;20036;-38
2023/12/30 00:43:02;;;;;;;5.93;1.15;;;6.80;94.40;;;;;;5051469;28;20017;-40
2023/12/30 00:45:28;;;;;;;6.97;1.30;;;6.80;94.40;;;;;;5051946;28;20017;-39
2023/12/30 00:47:54;;;;;;;7.50;1.42;;;6.80;94.40;;;;;;5051727;28;20496;-36
2023/12/30 00:50:19;;;;;;;8.00;1.60;;;6.80;94.40;;;;;;5051630;28;20037;-39
2023/12/30 00:52:45;;;;;;;7.43;1.40;;;6.80;94.40;;;;;;5051440;28;20027;-35
2023/12/30 00:55:10;;;;;;;4.57;1.95;;;6.80;94.40;;;;;;5051801;28;20061;-41
2023/12/30 00:57:36;;;;;;;10.20;1.65;;;6.80;94.40;;;;;;5051745;28;20115;-38
2023/12/30 01:00:01;;;;;;;5.68;1.30;;;6.80;94.40;;;;;;5051487;28;20033;-39
2023/12/30 01:02:27;;;;;;;7.47;1.38;;;6.80;94.40;;;;;;5051262;28;20094;-37
2023/12/30 01:04:52;;;;;;;5.55;1.38;;;6.80;94.40;;;;;;5051313;28;20362;-38
2023/12/30 01:07:18;;;;;;;5.05;1.13;;;6.80;94.40;;;;;;5051464;28;20075;-36
2023/12/30 01:09:43;;;;;;;8.82;1.50;;;6.80;94.40;;;;;;5051844;28;20028;-38
2023/12/30 01:12:09;;;;;;;3.90;1.30;;;6.80;94.50;;;;;;5055519;28;20025;-36
2023/12/30 01:14:35;;;;;;;4.57;1.30;;;6.70;94.50;;;;;;5055320;28;20029;-40
2023/12/30 01:17:00;;;;;;;9.98;1.95;;;6.80;94.50;;;;;;5055470;28;20039;-39
2023/12/30 01:19:26;;;;;;;4.82;1.33;;;6.80;94.50;;;;;;5055413;28;20024;-37
2023/12/30 01:21:51;;;;;;;6.55;1.63;;;6.80;94.40;;;;;;5053993;28;20248;-35
2023/12/30 01:24:17;;;;;;;5.82;1.60;;;6.80;94.40;;;;;;5055423;28;20017;-40
2023/12/30 01:26:43;;;;;;;6.65;1.63;;;6.80;94.70;;;;;;5055296;28;20017;-41
2023/12/30 01:29:08;;;;;;;7.60;2.05;;;6.80;94.40;;;;;;5055241;28;20079;-40
2023/12/30 01:31:34;;;;;;;4.45;1.20;;;6.80;94.40;;;;;;5055065;28;20029;-37
2023/12/30 01:34:00;;;;;;;12.25;1.80;;;6.80;94.40;;;;;;5054927;28;20059;-37
2023/12/30 01:36:26;;;;;;;5.57;1.60;;;6.80;94.40;;;;;;5055367;28;20017;-38
2023/12/30 01:38:51;;;;;;;5.07;1.40;;;6.70;94.40;;;;;;5055553;28;20025;-40
2023/12/30 01:41:21;;;;;;;7.47;1.38;;;6.80;94.50;;;;;;5055434;28;20518;-35
2023/12/30 01:43:46;;;;;;;8.70;1.92;;;6.80;94.50;;;;;;5055106;28;20525;-37
2023/12/30 01:46:12;;;;;;;6.57;1.20;;;6.70;94.40;;;;;;5055013;28;20048;-37
2023/12/30 01:48:38;;;;;;;5.50;1.10;;;6.80;94.50;;;;;;5055310;28;20021;-35
2023/12/30 01:51:07;;;;;;;5.53;1.52;;;6.80;94.80;;;;;;5054804;28;20139;-38
2023/12/30 01:53:35;;;;;;;10.05;1.63;;;6.80;94.50;;;;;;5054953;28;20485;-38
2023/12/30 01:56:01;;;;;;;4.20;1.20;;;6.80;94.50;;;;;;5054905;28;20052;-37
2023/12/30 01:58:27;;;;;;;6.25;1.38;;;6.80;94.40;;;;;;5054944;28;20483;-41
2023/12/30 02:00:55;;;;;;;7.00;1.27;;;6.80;94.40;;;;;;5054587;28;20362;-34
2023/12/30 02:03:21;;;;;;;10.45;1.58;;;6.80;94.40;;;;;;5054537;28;20013;-36
2023/12/30 02:05:48;;;;;;;6.05;1.73;;;6.80;94.40;;;;;;5054772;28;20104;-37
2023/12/30 02:08:18;;;;;;;6.65;1.60;;;6.80;94.40;;;;;;5054563;28;20028;-36
2023/12/30 02:10:44;;;;;;;9.15;1.83;;;6.80;94.40;;;;;;5054490;28;20029;-38
2023/12/30 02:13:10;;;;;;;4.82;1.50;;;6.80;94.40;;;;;;5054356;28;20107;-36
2023/12/30 02:15:36;;;;;;;7.35;1.70;;;6.80;94.40;;;;;;5053104;28;20432;-39
2023/12/30 02:18:02;;;;;;;5.25;1.40;;;6.80;94.40;;;;;;5054377;28;20025;-39
2023/12/30 02:20:28;;;;;;;5.45;1.50;;;6.80;94.30;;;;;;5054476;28;20469;-38
2023/12/30 02:22:54;;;;;;;8.63;1.90;;;6.90;94.40;;;;;;5052780;28;20391;-40
2023/12/30 02:25:20;;;;;;;6.75;1.40;;;6.90;94.40;;;;;;5054553;28;20013;-37
2023/12/30 02:27:46;;;;;;;7.78;1.55;;;6.90;94.40;;;;;;5053978;28;20529;-38
2023/12/30 02:30:12;;;;;;;5.30;1.48;;;6.90;94.40;;;;;;5052818;28;20033;-41
2023/12/30 02:32:38;;;;;;;10.68;2.15;;;6.90;94.40;;;;;;5054103;28;20040;-36
2023/12/30 02:35:04;;;;;;;13.13;1.65;;;6.90;94.50;;;;;;5053913;28;20044;-40
2023/12/30 02:37:30;;;;;;;7.75;1.70;;;6.90;94.50;;;;;;5054365;28;20369;-37
2023/12/30 02:39:55;;;;;;;6.95;1.50;;;6.90;94.50;;;;;;5054180;28;20032;-36
2023/12/30 02:42:21;;;;;;;8.43;1.80;;;6.90;94.50;;;;;;5053914;28;20496;-38
2023/12/30 02:44:47;;;;;;;7.70;2.38;;;6.90;94.50;;;;;;5053746;28;20389;-40
2023/12/30 02:47:12;;;;;;;4.85;1.40;;;7.00;94.50;;;;;;5053923;28;20025;-36
2023/12/30 02:49:42;;;;;;;10.10;1.70;;;6.90;94.50;;;;;;5053841;28;20043;-39
2023/12/30 02:52:08;;;;;;;7.45;1.42;;;7.00;94.50;;;;;;5053792;28;20032;-36
2023/12/30 02:54:35;;;;;;;11.90;2.50;;;7.00;94.50;;;;;;5053589;28;20021;-36
2023/12/30 02:57:02;;;;;;;8.00;1.75;;;7.00;94.50;;;;;;5053843;28;20029;-34
2023/12/30 02:59:28;;;;;;;6.88;1.83;;;7.00;94.50;;;;;;5053876;28;20029;-38
2023/12/30 03:01:54;;;;;;;6.93;1.77;;;7.00;94.50;;;;;;5053327;28;20065;-37
2023/12/30 03:04:19;;;;;;;12.68;2.10;;;7.00;94.50;;;;;;5053378;28;20034;-38
2023/12/30 03:06:45;;;;;;;6.72;1.40;;;7.00;94.50;;;;;;5053344;28;20047;-39
2023/12/30 03:09:11;;;;;;;11.32;2.00;;;7.00;94.50;;;;;;5053531;28;20025;-38
2023/12/30 03:11:37;;;;;;;7.95;1.70;;;7.00;94.50;;;;;;5053560;28;20397;-44
2023/12/30 03:14:03;;;;;;;4.35;1.20;;;7.00;94.50;;;;;;5052213;28;20021;-35
2023/12/30 03:16:28;;;;;;;10.60;1.80;;;7.00;94.50;;;;;;5053328;28;20491;-35
2023/12/30 03:18:55;;;;;;;10.65;2.03;;;7.00;94.50;;;;;;5053247;28;20059;-42
2023/12/30 03:21:21;;;;;;;5.47;1.60;;;7.00;94.50;;;;;;5053232;28;20432;-37
2023/12/30 03:23:46;;;;;;;10.45;1.90;;;7.00;94.50;;;;;;5053260;28;20028;-38
2023/12/30 03:26:12;;;;;;;8.10;2.08;;;7.00;94.50;;;;;;5053394;28;20095;-40
2023/12/30 03:28:38;;;;;;;7.57;1.83;;;7.00;94.50;;;;;;5052844;28;20048;-36
2023/12/30 03:31:04;;;;;;;10.02;1.92;;;6.90;94.50;;;;;;5053047;28;20060;-36
2023/12/30 03:33:29;;;;;;;8.07;1.40;;;6.90;94.50;;;;;;5052278;28;20040;-37
2023/12/30 03:35:55;;;;;;;9.55;1.70;;;7.00;94.60;;;;;;5052817;28;20563;-38
2023/12/30 03:38:21;;;;;;;7.85;1.50;;;7.00;94.50;;;;;;5053089;28;20064;-37
2023/12/30 03:40:46;;;;;;;7.10;1.60;;;6.90;94.50;;;;;;5052684;28;20036;-39
2023/12/30 03:43:13;;;;;;;5.68;1.77;;;6.90;94.50;;;;;;5052681;28;20088;-40
2023/12/30 03:45:38;;;;;;;7.32;1.85;;;6.90;94.60;;;;;;5052663;28;20017;-36
2023/12/30 03:48:04;;;;;;;6.63;1.48;;;6.90;94.60;;;;;;5052905;28;20067;-36
2023/12/30 03:50:30;;;;;;;11.98;1.73;;;7.00;94.60;;;;;;5052908;28;20111;-36
2023/12/30 03:52:55;;;;;;;6.07;1.40;;;6.90;94.50;;;;;;5052471;28;20017;-37
2023/12/30 03:55:21;;;;;;;11.05;1.80;;;7.00;94.60;;;;;;5051294;28;20059;-35
2023/12/30 03:57:47;;;;;;;8.85;1.63;;;7.00;94.60;;;;;;5052333;28;20083;-38
2023/12/30 04:00:13;;;;;;;8.93;1.20;;;6.90;94.60;;;;;;5052700;28;20469;-38
2023/12/30 04:02:39;;;;;;;10.23;1.55;;;7.00;94.60;;;;;;5052514;28;20025;-37
2023/12/30 04:05:05;;;;;;;9.07;1.90;;;7.00;94.60;;;;;;5052462;28;20014;-38
2023/12/30 04:07:32;;;;;;;8.10;1.70;;;7.00;94.60;;;;;;5052370;28;20024;-42
2023/12/30 04:09:58;;;;;;;8.13;1.58;;;7.00;94.60;;;;;;5052596;28;20032;-38
2023/12/30 04:12:24;;;;;;;8.80;1.48;;;7.00;94.50;;;;;;5052119;28;20028;-40
2023/12/30 04:14:49;;;;;;;6.90;1.70;;;7.00;94.60;;;;;;5052065;28;20052;-36
2023/12/30 04:17:15;;;;;;;9.27;1.52;;;7.00;94.60;;;;;;5050878;28;20028;-38
2023/12/30 04:19:40;;;;;;;6.38;1.25;;;7.00;94.60;;;;;;5052035;28;20033;-36
2023/12/30 04:22:06;;;;;;;10.95;1.52;;;7.00;94.60;;;;;;5051838;28;20454;-36
2023/12/30 04:24:31;;;;;;;6.68;1.45;;;7.00;94.60;;;;;;5052313;28;20021;-40
2023/12/30 04:26:57;;;;;;;6.70;1.60;;;7.00;94.60;;;;;;5052207;28;20017;-38
2023/12/30 04:29:23;;;;;;;6.93;1.70;;;7.00;94.60;;;;;;5052276;28;20017;-36
2023/12/30 04:31:49;;;;;;;11.48;2.22;;;7.00;94.60;;;;;;5052147;28;20075;-36
2023/12/30 04:34:14;;;;;;;9.18;1.55;;;7.00;94.60;;;;;;5051562;28;20049;-37
2023/12/30 04:36:40;;;;;;;10.05;1.65;;;7.00;94.60;;;;;;5051884;28;20086;-36
2023/12/30 04:39:05;;;;;;;11.50;1.75;;;7.00;94.60;;;;;;5051778;28;20108;-45
2023/12/30 04:41:31;;;;;;;8.30;1.95;;;7.00;94.60;;;;;;5051891;28;20033;-35
2023/12/30 04:43:57;;;;;;;4.93;1.50;;;7.00;94.60;;;;;;5051362;28;20028;-40
2023/12/30 04:46:22;;;;;;;11.73;2.53;;;7.00;94.60;;;;;;5051365;28;20078;-38
2023/12/30 04:48:54;;;;;;;9.43;1.70;;;7.00;94.60;;;;;;5051572;28;20106;-36
2023/12/30 04:51:20;;;;;;;7.07;1.95;;;7.00;94.60;;;;;;5051839;28;20029;-36
2023/12/30 04:53:45;;;;;;;9.75;1.80;;;7.00;94.60;;;;;;5051562;28;20063;-41
2023/12/30 04:56:17;;;;;;;12.30;1.63;;;7.00;94.90;;;;;;5051788;28;20033;-39
2023/12/30 04:58:43;;;;;;;6.43;1.77;;;7.00;94.60;;;;;;5051863;28;20021;-38
2023/12/30 05:01:09;;;;;;;8.70;1.90;;;7.00;94.60;;;;;;5051822;28;20107;-40
2023/12/30 05:03:35;;;;;;;12.23;2.25;;;7.00;94.60;;;;;;5051635;28;20021;-38
2023/12/30 05:06:02;;;;;;;10.07;1.73;;;7.00;94.60;;;;;;5051414;28;20047;-36
2023/12/30 05:08:28;;;;;;;8.05;2.08;;;7.00;94.60;;;;;;5051823;28;20021;-36
2023/12/30 05:10:53;;;;;;;6.25;1.80;;;7.00;94.50;;;;;;5051715;28;20096;-38
2023/12/30 05:13:19;;;;;;;11.20;1.90;;;6.90;94.50;;;;;;5051662;28;20029;-34
2023/12/30 05:15:45;;;;;;;10.48;2.20;;;7.00;94.60;;;;;;5051341;28;20446;-38
2023/12/30 05:18:11;;;;;;;13.57;2.00;;;7.00;94.50;;;;;;5050081;28;20078;-37
2023/12/30 05:20:37;;;;;;;6.28;1.73;;;7.00;94.50;;;;;;5051647;28;20465;-38
2023/12/30 05:23:03;;;;;;;11.98;1.90;;;7.00;94.50;;;;;;5051398;28;20150;-42
2023/12/30 05:25:28;;;;;;;8.10;1.85;;;6.90;94.50;;;;;;5051143;28;20100;-39
2023/12/30 05:27:54;;;;;;;9.80;1.70;;;6.90;94.50;;;;;;5051022;28;20389;-40
2023/12/30 05:30:20;;;;;;;11.30;2.03;;;6.90;94.50;;;;;;5051637;28;20103;-33
2023/12/30 05:32:45;;;;;;;7.20;1.80;;;6.90;94.70;;;;;;5051113;28;20056;-38
2023/12/30 05:35:11;;;;;;;10.18;2.13;;;6.90;94.50;;;;;;5051188;28;20025;-34
2023/12/30 05:37:36;;;;;;;9.02;1.83;;;6.90;94.50;;;;;;5051163;28;20484;-36
2023/12/30 05:40:06;;;;;;;8.15;1.90;;;6.90;94.50;;;;;;5051381;28;20029;-35
2023/12/30 05:42:31;;;;;;;7.90;1.77;;;6.90;94.50;;;;;;5051520;28;20021;-38
2023/12/30 05:44:57;;;;;;;10.23;2.20;;;6.90;94.50;;;;;;5050977;28;20025;-36
2023/12/30 05:47:23;;;;;;;13.05;2.17;;;6.80;94.50;;;;;;5051384;28;20489;-39
2023/12/30 05:49:49;;;;;;;10.63;1.88;;;6.80;94.50;;;;;;5051011;28;20021;-35
2023/12/30 05:52:15;;;;;;;6.90;1.70;;;6.80;94.50;;;;;;5051086;28;20025;-40
2023/12/30 05:54:40;;;;;;;8.30;1.75;;;6.80;94.60;;;;;;5050820;28;20025;-35
2023/12/30 05:57:06;;;;;;;8.02;1.80;;;6.80;94.60;;;;;;5053494;28;20109;-39
2023/12/30 05:59:31;;;;;;;8.70;1.73;;;6.80;94.60;;;;;;5055072;28;20032;-34
2023/12/30 06:01:58;;;;;;;6.03;1.45;;;6.80;94.60;;;;;;5054485;28;20096;-42
2023/12/30 06:04:25;;;;;;;7.05;1.45;;;6.80;94.60;;;;;;5054572;28;20029;-36
2023/12/30 06:06:50;;;;;;;11.18;2.10;;;6.80;94.60;;;;;;5054557;28;20021;-39
2023/12/30 06:09:16;;;;;;;6.95;1.77;;;6.80;94.60;;;;;;5054652;28;20096;-40
2023/12/30 06:11:41;;;;;;;10.50;2.20;;;6.70;94.50;;;;;;5054756;28;20032;-34
2023/12/30 06:14:07;;;;;;;8.43;1.75;;;6.80;94.60;;;;;;5054356;28;20065;-37
2023/12/30 06:16:32;;;;;;;9.90;1.92;;;6.80;94.60;;;;;;5054778;28;20370;-36
2023/12/30 06:18:58;;;;;;;6.47;1.77;;;6.80;94.60;;;;;;5054623;28;20064;-42
2023/12/30 06:21:24;;;;;;;9.77;2.03;;;6.80;94.60;;;;;;5054093;28;20488;-36
2023/12/30 06:23:49;;;;;;;8.23;2.08;;;6.80;94.60;;;;;;5054269;28;20046;-37
2023/12/30 06:26:15;;;;;;;7.57;1.80;;;6.80;94.60;;;;;;5054306;28;20120;-37
2023/12/30 06:28:40;;;;;;;5.88;1.98;;;6.70;94.60;;;;;;5054132;28;20021;-35
2023/12/30 06:31:06;;;;;;;6.30;2.00;;;6.70;94.60;;;;;;5054075;28;20473;-38
2023/12/30 06:33:31;;;;;;;10.43;2.15;;;6.70;94.60;;;;;;5053947;28;20045;-36
2023/12/30 06:35:57;;;;;;;5.93;1.52;;;6.70;94.60;;;;;;5054432;28;20025;-35
2023/12/30 06:38:22;;;;;;;7.45;1.85;;;6.70;94.60;;;;;;5054065;28;20025;-36
2023/12/30 06:40:48;;;;;;;5.97;1.85;;;6.70;94.60;;;;;;5053795;28;20035;-36
2023/12/30 06:43:14;;;;;;;7.15;1.90;;;6.70;94.70;;;;;;5053937;28;20009;-40
2023/12/30 06:45:40;;;;;;;12.35;2.33;;;6.70;94.70;;;;;;5054493;28;20021;-38
2023/12/30 06:48:06;;;;;;;13.90;2.17;;;6.70;94.70;;;;;;5054182;28;20013;-39
2023/12/30 06:50:31;;;;;;;11.88;2.17;;;6.70;94.70;;;;;;5053603;28;20525;-33
2023/12/30 06:53:00;;;;;;;4.28;1.70;;;6.70;94.70;;;;;;5053565;28;20033;-40
2023/12/30 06:55:26;;;;;;;6.53;2.03;;;6.70;94.70;;;;;;5053902;28;20021;-36
2023/12/30 06:57:52;;;;;;;14.25;2.40;;;6.70;94.70;;;;;;5053812;28;20461;-38
2023/12/30 07:00:18;;;;;;;9.85;2.05;;;6.70;94.70;;;;;;5053851;28;20029;-40
2023/12/30 07:02:44;;;;;;;7.93;1.92;;;6.70;94.70;;;;;;5053349;28;20019;-39
2023/12/30 07:05:10;;;;;;;10.27;2.47;;;6.70;94.70;;;;;;5053399;28;20033;-35
2023/12/30 07:07:36;;;;;;;9.60;2.33;;;6.70;94.70;;;;;;5052847;28;20025;-41
2023/12/30 07:10:04;;;;;;;9.27;2.30;;;6.70;94.80;;;;;;5053791;28;20044;-36
2023/12/30 07:12:29;;;;;;;12.48;2.67;;;6.70;94.80;;;;;;5053333;28;20021;-35
2023/12/30 07:14:55;;;;;;;10.75;2.50;;;6.70;94.80;;;;;;5053407;28;20484;-35
2023/12/30 07:17:21;;;;;;;10.48;2.70;;;6.70;94.80;;;;;;5053273;28;20024;-39
2023/12/30 07:19:46;;;;;;;8.35;2.50;;;6.70;94.80;;;;;;5053255;28;20025;-34
2023/12/30 07:22:12;;;;;;;8.27;2.40;;;6.70;94.80;;;;;;5053102;28;20025;-36
2023/12/30 07:24:38;;;;;;;8.60;2.10;;;6.70;95.10;;;;;;5053321;28;20021;-38
2023/12/30 07:27:04;;;;;;;9.45;2.67;;;6.70;94.80;;;;;;5053150;28;20028;-39
2023/12/30 07:29:30;;;;;;;13.57;2.78;;;6.70;94.80;;;;;;5053075;28;20025;-36
2023/12/30 07:31:56;;;;;;;6.18;2.30;;;6.80;95.10;;;;;;5052902;28;20147;-36
2023/12/30 07:34:21;;;;;;;8.27;2.65;;;6.70;94.80;;;;;;5053100;28;20078;-40
2023/12/30 07:36:48;;;;;;;13.55;3.00;;;6.70;94.80;;;;;;5052998;28;20079;-37
2023/12/30 07:39:13;;;;;;;7.80;2.70;;;6.70;94.80;;;;;;5053155;28;20303;-37
2023/12/30 07:41:39;;;;;;;8.35;2.72;;;6.70;94.80;;;;;;5052772;28;20063;-38
2023/12/30 07:44:05;;;;;;;10.60;3.20;;;6.80;94.90;;;;;;5052724;28;20023;-37
2023/12/30 07:46:30;;;;;;;7.97;2.72;;;6.70;94.80;;;;;;5053014;28;20025;-35
2023/12/30 07:48:56;;;;;;;12.00;2.67;;;6.70;94.80;;;;;;5052682;28;20021;-37
2023/12/30 07:51:23;;;;;;;15.10;3.08;;;6.70;94.80;;;;;;5052869;28;20025;-38
2023/12/30 07:53:49;;;;;;;9.07;2.60;;;6.70;94.80;;;;;;5052493;28;20025;-39
2023/12/30 07:56:16;;;;;;;12.93;2.92;;;6.70;94.80;;;;;;5052738;28;20025;-36
2023/12/30 07:58:41;;;;;;;12.43;3.33;;;6.70;94.90;;;;;;5052613;28;20025;-38
2023/12/30 08:01:07;;;;;;;11.05;2.85;;;6.70;94.90;;;;;;5052616;28;20491;-36
2023/12/30 08:03:32;;;;;;;8.52;2.70;;;6.70;94.80;;;;;;5052529;28;20021;-37
2023/12/30 08:05:58;;;;;;;13.23;3.22;;;6.70;94.90;;;;;;5050932;28;20462;-37
2023/12/30 08:08:23;;;;;;;11.55;2.50;;;6.70;94.90;;;;;;5052276;28;20052;-37
2023/12/30 08:10:49;;;;;;;10.18;2.90;;;6.70;94.90;;;;;;5052227;28;20028;-39
2023/12/30 08:13:16;;;;;;;9.88;2.67;;;6.70;94.90;;;;;;5052062;28;20029;-38
2023/12/30 08:15:41;;;;;;;14.20;3.03;;;6.80;94.90;;;;;;5052453;28;20068;-37
2023/12/30 08:18:07;;;;;;;9.88;2.40;;;6.70;94.80;;;;;;5052350;28;20035;-35
2023/12/30 08:20:33;;;;;;;15.13;2.67;;;6.80;94.90;;;;;;5052080;28;20107;-35
2023/12/30 08:22:58;;;;;;;8.60;2.08;;;6.80;94.80;;;;;;5052054;28;20025;-40
2023/12/30 08:25:24;;;;;;;7.55;2.40;;;6.80;94.80;;;;;;5050681;28;20024;-37
2023/12/30 08:27:49;;;;;;;10.10;2.80;;;6.80;94.80;;;;;;5052074;28;20025;-34
2023/12/30 08:30:15;;;;;;;10.55;2.95;;;6.80;94.80;;;;;;5051973;28;20494;-37
2023/12/30 08:32:41;;;;;;;6.93;2.20;;;6.80;94.80;;;;;;5051837;28;20097;-38
2023/12/30 08:35:08;;;;;;;7.57;2.47;;;6.80;94.80;;;;;;5051819;28;20540;-36
2023/12/30 08:37:35;;;;;;;10.60;2.33;;;6.90;94.80;;;;;;5051746;28;20040;-38
2023/12/30 08:40:05;;;;;;;11.82;2.38;;;6.90;94.80;;;;;;5051727;28;20040;-35
2023/12/30 08:42:34;;;;;;;13.32;3.00;;;6.90;94.80;;;;;;5051941;28;20515;-36
2023/12/30 08:45:00;;;;;;;7.55;2.55;;;6.90;94.80;;;;;;5051969;28;20028;-40
2023/12/30 08:47:28;;;;;;;11.23;3.55;;;6.90;94.80;;;;;;5051756;28;20056;-37
2023/12/30 08:49:54;;;;;;;11.68;2.30;;;7.00;94.80;;;;;;5051766;28;20055;-38
2023/12/30 08:52:19;;;;;;;12.98;3.05;;;7.00;94.80;;;;;;5051700;28;20265;-36
2023/12/30 08:54:45;;;;;;;9.80;2.60;;;7.00;94.80;;;;;;5050251;28;20465;-37
2023/12/30 08:57:11;;;;;;;12.25;2.70;;;7.00;94.70;;;;;;5051583;28;20021;-35
2023/12/30 08:59:36;;;;;;;10.15;2.25;;;7.10;94.70;;;;;;5051569;28;20527;-39
2023/12/30 09:02:02;;;;;;;9.65;2.22;;;7.10;94.70;;;;;;5051651;28;20021;-34
2023/12/30 09:04:28;;;;;;;15.98;2.63;;;7.10;94.70;;;;;;5051631;28;20029;-38
2023/12/30 09:06:56;;;;;;;12.65;2.40;;;7.20;94.70;;;;;;5051496;28;20022;-40
2023/12/30 09:09:22;;;;;;;8.20;2.20;;;7.20;95.00;;;;;;5050301;28;20029;-35
2023/12/30 09:11:48;;;;;;;9.52;2.50;;;7.20;94.70;;;;;;5051398;28;20028;-36
2023/12/30 09:14:15;;;;;;;11.18;2.05;;;7.30;94.70;;;;;;5051347;28;20108;-36
2023/12/30 09:16:41;;;;;;;5.43;2.15;;;7.30;94.60;;;;;;5051385;28;20028;-39
2023/12/30 09:19:07;;;;;;;13.95;2.72;;;7.40;94.60;;;;;;5051673;28;20031;-39
2023/12/30 09:21:33;;;;;;;10.48;2.40;;;7.30;94.50;;;;;;5051511;28;20032;-39
2023/12/30 09:23:58;;;;;;;11.02;2.13;;;7.40;94.60;;;;;;5051424;28;20028;-39
2023/12/30 09:26:25;;;;;;;8.20;2.45;;;7.40;94.60;;;;;;5051566;28;20551;-38
2023/12/30 09:28:51;;;;;;;10.57;2.63;;;7.40;94.50;;;;;;5051532;28;20025;-34
2023/12/30 09:31:18;;;;;;;13.63;2.30;;;7.40;94.50;;;;;;5051335;28;20374;-37
2023/12/30 09:33:44;;;;;;;8.18;2.40;;;7.40;94.50;;;;;;5055108;28;20037;-34
2023/12/30 09:36:09;;;;;;;12.77;2.65;;;7.50;94.80;;;;;;5055230;28;20025;-39
2023/12/30 09:38:35;;;;;;;7.43;2.58;;;7.50;94.50;;;;;;5055185;28;20071;-34
2023/12/30 09:41:00;;;;;;;13.90;2.92;;;7.50;94.50;;;;;;5055163;28;20032;-36
2023/12/30 09:43:27;;;;;;;9.25;2.97;;;7.50;94.50;;;;;;5055025;28;20040;-36
2023/12/30 09:45:55;;;;;;;9.10;1.92;;;7.50;94.50;;;;;;5055185;28;20029;-36
2023/12/30 09:48:25;;;;;;;7.70;1.88;;;7.50;94.50;;;;;;5054972;28;20074;-34
2023/12/30 09:50:55;;;;;;;7.57;1.83;;;7.60;94.50;;;;;;5054988;28;20100;-36
2023/12/30 09:53:22;;;;;;;9.10;2.40;;;7.60;94.50;;;;;;5055049;28;20473;-37
2023/12/30 09:55:52;;;;;;;10.57;2.35;;;7.60;94.40;;;;;;5055234;28;20132;-39
2023/12/30 09:58:18;;;;;;;11.70;2.42;;;7.70;94.40;;;;;;5053641;28;20066;-43
2023/12/30 10:00:44;;;;;;;7.43;2.35;;;7.80;94.40;;;;;;5055017;28;20036;-40
2023/12/30 10:03:10;;;;;;;9.00;2.22;;;7.80;94.60;;;;;;5054609;28;20126;-42
2023/12/30 10:05:36;;;;;;;9.80;2.35;;;7.90;94.30;;;;;;5054903;28;20469;-38
2023/12/30 10:08:05;;;;;;;9.82;2.83;;;7.90;94.30;;;;;;5054827;28;20025;-41
2023/12/30 10:10:40;;;;;;;11.85;2.25;;;8.00;94.20;;;;;;5054881;28;20098;-38
2023/12/30 10:13:06;;;;;;;8.60;1.83;;;8.00;94.20;;;;;;5054853;28;20036;-43
2023/12/30 10:15:31;;;;;;;8.68;2.10;;;8.10;94.20;;;;;;5054513;28;20381;-35
2023/12/30 10:17:57;;;;;;;6.07;1.88;;;8.10;94.20;;;;;;5054292;28;20261;-34
2023/12/30 10:20:23;;;;;;;11.00;2.28;;;8.10;94.10;;;;;;5054393;28;20139;-36
2023/12/30 10:22:49;;;;;;;9.30;2.65;;;8.20;94.10;;;;;;5054029;28;20025;-38
2023/12/30 10:25:14;;;;;;;12.32;2.53;;;8.20;94.10;;;;;;5054546;28;20013;-34
2023/12/30 10:27:40;;;;;;;6.43;1.95;;;8.30;94.10;;;;;;5052836;28;20032;-38
2023/12/30 10:30:08;;;;;;;8.52;1.88;;;8.30;94.10;;;;;;5054583;28;20017;-35
2023/12/30 10:32:33;;;;;;;10.07;2.28;;;8.30;94.10;;;;;;5054682;28;20124;-33
2023/12/30 10:34:59;;;;;;;7.65;2.08;;;8.40;94.00;;;;;;5054230;28;20092;-37
2023/12/30 10:37:28;;;;;;;6.85;2.33;;;8.40;94.00;;;;;;5054430;28;20024;-39
2023/12/30 10:39:55;;;;;;;9.25;2.40;;;8.40;94.00;;;;;;5054175;28;20381;-39
2023/12/30 10:42:21;;;;;;;7.65;2.53;;;8.50;94.30;;;;;;5053227;28;20029;-35
2023/12/30 10:44:46;;;;;;;7.72;2.17;;;8.50;94.00;;;;;;5053626;28;20112;-37
2023/12/30 10:47:15;;;;;;;7.40;2.42;;;8.50;93.90;;;;;;5052753;28;20017;-35
2023/12/30 10:49:49;;;;;;;8.52;2.28;;;8.60;93.90;;;;;;5053862;28;20187;-42
2023/12/30 10:52:26;;;;;;;12.02;2.75;;;8.60;93.90;;;;;;5054077;28;20488;-38
2023/12/30 10:55:00;;;;;;;11.68;2.28;;;8.60;93.80;;;;;;5053921;28;20056;-38
2023/12/30 10:57:31;;;;;;;13.15;2.88;;;8.60;93.80;;;;;;5053868;28;20463;-38
2023/12/30 10:59:58;;;;;;;8.90;2.55;;;8.60;94.10;;;;;;5053935;28;20021;-40
2023/12/30 11:02:24;;;;;;;16.65;3.03;;;8.70;93.90;;;;;;5053312;28;20028;-34
2023/12/30 11:04:51;;;;;;;11.82;2.70;;;8.70;93.80;;;;;;5053819;28;20531;-34
2023/12/30 11:07:20;;;;;;;12.57;2.38;;;8.70;93.80;;;;;;5053601;28;20024;-37
2023/12/30 11:09:47;;;;;;;12.48;3.28;;;8.70;93.80;;;;;;5052219;28;20037;-41
2023/12/30 11:12:13;;;;;;;11.02;2.47;;;8.70;93.70;;;;;;5053483;28;20035;-37
2023/12/30 11:14:38;;;;;;;10.13;2.70;;;8.70;93.70;;;;;;5053465;28;20108;-36
2023/12/30 11:17:04;;;;;;;9.75;2.50;;;8.80;93.70;;;;;;5053472;28;20389;-32
2023/12/30 11:19:32;;;;;;;12.43;2.75;;;8.80;93.80;;;;;;5053497;28;20083;-35
2023/12/30 11:21:59;;;;;;;13.77;3.40;;;8.80;93.70;;;;;;5052887;28;20025;-40
2023/12/30 11:24:26;;;;;;;9.25;2.70;;;8.80;93.70;;;;;;5053085;28;20021;-36
2023/12/30 11:26:53;;;;;;;15.32;3.10;;;8.80;93.70;;;;;;5051760;28;20017;-34
2023/12/30 11:29:28;;;;;;;14.15;2.60;;;8.80;93.70;;;;;;5053542;28;20024;-41
2023/12/30 11:31:55;;;;;;;10.57;3.25;;;8.80;93.70;;;;;;5053458;28;20033;-37
2023/12/30 11:34:22;;;;;;;16.02;3.38;;;8.80;93.70;;;;;;5053265;28;20028;-34
2023/12/30 11:36:49;;;;;;;10.63;3.30;;;8.80;93.70;;;;;;5051395;28;20020;-37
2023/12/30 11:39:28;;;;;;;10.98;3.10;;;8.80;93.70;;;;;;5053054;28;20478;-39
2023/12/30 11:41:54;;;;;;;11.30;3.50;;;8.90;93.70;;;;;;5052954;28;20028;-34
2023/12/30 11:44:20;;;;;;;13.88;4.10;;;8.90;93.70;;;;;;5051758;28;20492;-38
2023/12/30 11:46:47;;;;;;;17.90;4.03;;;8.90;93.70;;;;;;5052909;28;20017;-34
2023/12/30 11:49:20;;;;;;;13.80;3.42;;;9.00;93.70;;;;;;5053332;28;20493;-34
2023/12/30 11:51:46;;;;;;;11.63;3.80;;;9.00;93.70;;;;;;5052750;28;20040;-36
2023/12/30 11:54:12;;;;;;;19.50;4.10;;;9.00;93.70;;;;;;5052474;28;20021;-39
2023/12/30 11:56:37;;;;;;;11.90;3.75;;;9.10;93.60;;;;;;5052642;28;20029;-40
2023/12/30 11:59:03;;;;;;;8.82;2.95;;;9.10;93.60;;;;;;5052921;28;20076;-41
2023/12/30 12:01:29;;;;;;;10.55;3.70;;;9.10;93.60;;;;;;5052269;28;20431;-40
2023/12/30 12:03:54;;;;;;;13.15;4.18;;;9.20;93.60;;;;;;5052363;28;20053;-38
2023/12/30 12:06:20;;;;;;;12.73;3.72;;;9.20;93.60;;;;;;5052583;28;20098;-39
2023/12/30 12:08:46;;;;;;;10.18;3.70;;;9.30;93.60;;;;;;5052475;28;20536;-42
2023/12/30 12:11:11;;;;;;;10.50;4.07;;;9.30;93.60;;;;;;5052322;28;20028;-41
2023/12/30 12:13:37;;;;;;;12.13;4.35;;;9.30;93.50;;;;;;5052321;28;20071;-42
2023/12/30 12:16:04;;;;;;;12.27;4.38;;;9.30;93.50;;;;;;5052179;28;20021;-41
2023/12/30 12:18:31;;;;;;;14.63;4.90;;;9.30;93.50;;;;;;5052177;28;20021;-45
2023/12/30 12:20:56;;;;;;;14.93;4.55;;;9.30;93.50;;;;;;5052231;28;20025;-43
2023/12/30 12:23:23;;;;;;;19.20;5.60;;;9.30;93.50;;;;;;5051843;28;20366;-44
2023/12/30 12:25:49;;;;;;;18.95;5.78;;;9.40;93.60;;;;;;5052339;28;20028;-39
2023/12/30 12:28:16;;;;;;;13.05;4.50;;;9.40;93.50;;;;;;5050618;28;20017;-39
2023/12/30 12:30:43;;;;;;;15.40;5.32;;;9.40;93.50;;;;;;5052047;28;20459;-41
2023/12/30 12:33:11;;;;;;;15.10;4.57;;;9.40;93.50;;;;;;5051721;28;20115;-37
2023/12/30 12:35:37;;;;;;;17.77;4.72;;;9.40;93.50;;;;;;5052004;28;20021;-41
2023/12/30 12:38:03;;;;;;;10.48;3.85;;;9.50;93.60;;;;;;5051929;28;20433;-39
2023/12/30 12:40:29;;;;;;;13.68;4.30;;;9.50;93.60;;;;;;5052031;28;20024;-41
2023/12/30 12:42:54;;;;;;;11.80;4.00;;;9.50;93.50;;;;;;5051694;28;20100;-37
2023/12/30 12:45:20;;;;;;;11.15;3.90;;;9.50;93.50;;;;;;5052048;28;20116;-39
2023/12/30 12:47:46;;;;;;;13.75;4.30;;;9.60;93.50;;;;;;5052131;28;20130;-44